createdAt,value
2018-03-26T00:02:00.731Z,20.43
2018-03-26T00:04:28.372Z,19.93
2018-03-26T00:06:56.010Z,20.47
2018-03-26T00:09:23.656Z,21.27
2018-03-26T00:11:51.258Z,22.43
2018-03-26T00:14:18.901Z,21.67
2018-03-26T00:16:46.506Z,22.00
2018-03-26T00:19:14.148Z,20.03
2018-03-26T00:21:41.770Z,22.00
2018-03-26T00:24:09.416Z,21.63
2018-03-26T00:26:37.021Z,22.77
2018-03-26T00:29:04.970Z,19.93
2018-03-26T00:31:32.632Z,20.83
2018-03-26T00:34:00.234Z,19.43
2018-03-26T00:36:27.890Z,20.00
2018-03-26T00:38:55.536Z,21.50
2018-03-26T00:41:23.178Z,22.10
2018-03-26T00:43:50.853Z,23.07
2018-03-26T00:46:18.520Z,21.47
2018-03-26T00:48:46.118Z,21.63
2018-03-26T00:51:13.912Z,23.40
2018-03-26T00:53:45.244Z,22.00
2018-03-26T00:56:12.869Z,23.43
2018-03-26T00:58:40.471Z,20.23
2018-03-26T01:01:08.118Z,21.10
2018-03-26T01:03:35.707Z,22.73
2018-03-26T01:06:03.370Z,23.53
2018-03-26T01:08:30.963Z,22.33
2018-03-26T01:10:58.600Z,22.20
2018-03-26T01:13:26.282Z,22.70
2018-03-26T01:15:53.930Z,21.30
2018-03-26T01:18:21.658Z,21.83
2018-03-26T01:20:49.315Z,22.73
2018-03-26T01:23:16.916Z,24.67
2018-03-26T01:25:44.575Z,24.80
2018-03-26T01:28:12.178Z,23.10
2018-03-26T01:30:39.783Z,23.50
2018-03-26T01:33:07.458Z,24.03
2018-03-26T01:35:35.057Z,24.60
2018-03-26T01:38:02.697Z,23.67
2018-03-26T01:40:30.350Z,25.27
2018-03-26T01:42:58.004Z,23.53
2018-03-26T01:45:25.684Z,24.90
2018-03-26T01:47:53.311Z,25.30
2018-03-26T01:50:20.922Z,25.23
2018-03-26T01:52:48.539Z,25.83
2018-03-26T01:55:16.151Z,24.93
2018-03-26T01:57:43.831Z,25.17
2018-03-26T02:00:11.547Z,25.63
2018-03-26T02:02:39.222Z,25.27
2018-03-26T02:05:06.839Z,28.07
2018-03-26T02:07:34.466Z,28.93
2018-03-26T02:10:02.158Z,29.60
2018-03-26T02:12:29.792Z,30.43
2018-03-26T02:14:57.384Z,27.83
2018-03-26T02:17:25.169Z,30.90
2018-03-26T02:19:52.771Z,32.83
2018-03-26T02:22:20.394Z,29.77
2018-03-26T02:24:48.024Z,32.23
2018-03-26T02:27:15.611Z,33.57
2018-03-26T02:29:43.275Z,32.50
2018-03-26T02:32:10.883Z,33.30
2018-03-26T02:34:38.513Z,37.33
2018-03-26T02:37:06.114Z,33.20
2018-03-26T02:39:33.737Z,36.67
2018-03-26T02:42:01.352Z,36.20
2018-03-26T02:44:28.981Z,37.63
2018-03-26T02:46:56.568Z,33.60
2018-03-26T02:49:24.298Z,37.30
2018-03-26T02:51:51.956Z,32.77
2018-03-26T02:54:19.552Z,37.37
2018-03-26T02:56:47.178Z,36.77
2018-03-26T02:59:14.815Z,36.53
2018-03-26T03:01:42.479Z,39.63
2018-03-26T03:04:10.139Z,32.97
2018-03-26T03:06:37.741Z,36.90
2018-03-26T03:09:05.364Z,38.03
2018-03-26T03:11:32.989Z,36.00
2018-03-26T03:14:00.794Z,34.90
2018-03-26T03:16:28.399Z,35.50
2018-03-26T03:18:55.990Z,35.87
2018-03-26T03:21:23.731Z,36.60
2018-03-26T03:23:51.332Z,38.00
2018-03-26T03:26:18.964Z,36.00
2018-03-26T03:28:46.558Z,33.07
2018-03-26T03:31:14.198Z,32.50
2018-03-26T03:33:41.796Z,36.50
2018-03-26T03:36:09.451Z,34.73
2018-03-26T03:38:37.030Z,34.43
2018-03-26T03:41:04.690Z,34.60
2018-03-26T03:43:32.293Z,35.50
2018-03-26T03:45:59.963Z,34.23
2018-03-26T03:48:27.655Z,37.30
2018-03-26T03:50:55.622Z,33.47
2018-03-26T03:53:23.210Z,36.90
2018-03-26T03:55:50.852Z,33.37
2018-03-26T03:58:18.518Z,34.70
2018-03-26T04:00:46.160Z,34.20
2018-03-26T04:03:13.734Z,34.60
2018-03-26T04:05:41.520Z,30.83
2018-03-26T04:08:09.127Z,29.13
2018-03-26T04:10:36.737Z,35.50
2018-03-26T04:13:04.371Z,32.80
2018-03-26T04:15:31.967Z,34.23
2018-03-26T04:17:59.598Z,32.40
2018-03-26T04:20:27.186Z,30.93
2018-03-26T04:22:54.827Z,31.33
2018-03-26T04:25:22.426Z,31.53
2018-03-26T04:27:50.052Z,28.67
2018-03-26T04:30:17.647Z,29.90
2018-03-26T04:32:45.273Z,28.87
2018-03-26T04:35:12.861Z,31.13
2018-03-26T04:37:40.529Z,31.27
2018-03-26T04:40:08.111Z,29.70
2018-03-26T04:42:35.765Z,30.37
2018-03-26T04:45:03.368Z,29.53
2018-03-26T04:47:31.003Z,27.50
2018-03-26T04:49:58.613Z,29.47
2018-03-26T04:52:26.315Z,28.80
2018-03-26T04:54:53.899Z,28.23
2018-03-26T04:57:21.542Z,27.23
2018-03-26T04:59:49.138Z,29.10
2018-03-26T05:02:16.826Z,29.47
2018-03-26T05:04:44.436Z,28.17
2018-03-26T05:07:12.058Z,26.43
2018-03-26T05:09:39.715Z,27.07
2018-03-26T05:12:07.349Z,26.40
2018-03-26T05:14:34.943Z,27.47
2018-03-26T05:17:02.533Z,26.87
2018-03-26T05:19:30.330Z,25.17
2018-03-26T05:21:57.954Z,24.60
2018-03-26T05:24:25.575Z,26.23
2018-03-26T05:26:53.175Z,24.77
2018-03-26T05:29:20.766Z,25.90
2018-03-26T05:31:48.391Z,25.00
2018-03-26T05:34:16.039Z,25.63
2018-03-26T05:36:43.628Z,27.40
2018-03-26T05:39:11.258Z,29.43
2018-03-26T05:41:38.850Z,26.57
2018-03-26T05:44:06.475Z,26.17
2018-03-26T05:46:34.173Z,25.73
2018-03-26T05:49:01.795Z,24.10
2018-03-26T05:51:29.398Z,24.97
2018-03-26T05:53:57.151Z,24.57
2018-03-26T05:56:24.775Z,25.17
2018-03-26T05:58:52.375Z,25.70
2018-03-26T06:01:20.042Z,24.77
2018-03-26T06:03:47.666Z,24.30
2018-03-26T06:06:15.407Z,24.87
2018-03-26T06:08:43.008Z,24.00
2018-03-26T06:11:10.638Z,24.93
2018-03-26T06:13:38.252Z,26.43
2018-03-26T06:16:05.998Z,25.80
2018-03-26T06:18:33.623Z,25.47
2018-03-26T06:21:01.274Z,27.03
2018-03-26T06:23:28.925Z,24.90
2018-03-26T06:25:56.570Z,27.90
2018-03-26T06:28:26.055Z,27.03
2018-03-26T06:30:53.723Z,26.67
2018-03-26T06:33:21.306Z,29.87
2018-03-26T06:35:48.938Z,26.10
2018-03-26T06:38:16.533Z,26.10
2018-03-26T06:40:44.173Z,27.57
2018-03-26T06:43:11.766Z,30.33
2018-03-26T06:45:39.359Z,30.30
2018-03-26T06:48:06.988Z,29.20
2018-03-26T06:50:34.630Z,30.60
2018-03-26T06:53:02.358Z,29.93
2018-03-26T06:55:29.967Z,33.00
2018-03-26T06:57:57.758Z,29.00
2018-03-26T07:00:25.351Z,32.10
2018-03-26T07:02:53.077Z,31.63
2018-03-26T07:05:20.708Z,31.50
2018-03-26T07:07:48.375Z,29.77
2018-03-26T07:10:15.985Z,32.70
2018-03-26T07:12:43.606Z,29.03
2018-03-26T07:15:11.210Z,32.80
2018-03-26T07:17:38.868Z,32.07
2018-03-26T07:20:06.550Z,37.93
2018-03-26T07:22:34.194Z,32.80
2018-03-26T07:25:01.792Z,30.83
2018-03-26T07:27:29.438Z,31.97
2018-03-26T07:29:57.031Z,32.83
2018-03-26T07:32:24.826Z,34.50
2018-03-26T07:34:52.453Z,38.60
2018-03-26T07:37:20.063Z,34.80
2018-03-26T07:39:47.694Z,33.70
2018-03-26T07:42:15.293Z,34.40
2018-03-26T07:44:43.697Z,37.60
2018-03-26T07:47:11.313Z,35.27
2018-03-26T07:49:39.025Z,36.20
2018-03-26T07:52:06.641Z,37.23
2018-03-26T07:54:34.350Z,38.57
2018-03-26T07:57:01.993Z,40.50
2018-03-26T07:59:29.685Z,40.13
2018-03-26T08:01:57.288Z,38.80
2018-03-26T08:04:25.059Z,39.60
2018-03-26T08:06:52.651Z,38.53
2018-03-26T08:09:20.306Z,42.27
2018-03-26T08:11:47.891Z,43.43
2018-03-26T08:14:15.540Z,42.70
2018-03-26T08:16:43.191Z,39.70
2018-03-26T08:19:10.809Z,41.90
2018-03-26T08:21:38.414Z,36.93
2018-03-26T08:24:06.147Z,43.57
2018-03-26T08:26:33.733Z,39.97
2018-03-26T08:29:01.391Z,38.80
2018-03-26T08:31:29.030Z,41.50
2018-03-26T08:33:56.677Z,44.27
2018-03-26T08:36:24.317Z,37.30
2018-03-26T08:38:51.922Z,37.73
2018-03-26T08:41:19.699Z,37.10
2018-03-26T08:43:47.308Z,41.00
2018-03-26T08:46:14.993Z,38.70
2018-03-26T08:48:42.583Z,43.00
2018-03-26T08:51:10.224Z,37.00
2018-03-26T08:53:37.882Z,37.50
2018-03-26T08:56:05.482Z,35.70
2018-03-26T08:58:33.082Z,35.53
2018-03-26T09:01:00.714Z,32.40
2018-03-26T09:03:28.390Z,33.00
2018-03-26T09:05:56.015Z,32.40
2018-03-26T09:08:23.602Z,28.97
2018-03-26T09:10:51.239Z,32.20
2018-03-26T09:13:18.902Z,28.40
2018-03-26T09:15:46.538Z,29.67
2018-03-26T09:18:14.143Z,28.47
2018-03-26T09:20:44.572Z,25.70
2018-03-26T09:23:12.158Z,24.97
2018-03-26T09:25:39.759Z,26.37
2018-03-26T09:28:07.436Z,22.50
2018-03-26T09:30:35.035Z,24.93
2018-03-26T09:33:02.686Z,23.97
2018-03-26T09:35:30.302Z,24.50
2018-03-26T09:37:57.936Z,22.47
2018-03-26T09:40:25.531Z,22.23
2018-03-26T09:42:53.189Z,20.30
2018-03-26T09:45:20.828Z,21.40
2018-03-26T09:47:48.453Z,21.97
2018-03-26T09:50:16.099Z,18.30
2018-03-26T09:52:43.862Z,18.10
2018-03-26T09:55:11.547Z,18.47
2018-03-26T09:57:39.180Z,16.17
2018-03-26T10:00:06.770Z,14.43
2018-03-26T10:02:34.418Z,15.47
2018-03-26T10:05:02.020Z,14.40
2018-03-26T10:07:29.878Z,14.63
2018-03-26T10:09:57.473Z,12.00
2018-03-26T10:12:25.131Z,12.30
2018-03-26T10:14:52.724Z,13.03
2018-03-26T10:17:20.359Z,11.13
2018-03-26T10:19:48.054Z,12.20
2018-03-26T10:22:15.652Z,13.53
2018-03-26T10:24:43.350Z,13.37
2018-03-26T10:27:10.992Z,11.57
2018-03-26T10:29:38.636Z,10.33
2018-03-26T10:32:06.346Z,13.10
2018-03-26T10:34:34.003Z,10.93
2018-03-26T10:37:01.609Z,9.23
2018-03-26T10:39:29.254Z,6.00
2018-03-26T10:41:56.862Z,6.57
2018-03-26T10:44:24.502Z,10.60
2018-03-26T10:46:52.092Z,8.13
2018-03-26T10:49:19.740Z,5.50
2018-03-26T10:51:47.328Z,5.40
2018-03-26T10:54:14.956Z,4.17
2018-03-26T10:56:42.566Z,6.40
2018-03-26T10:59:10.203Z,4.63
2018-03-26T11:01:37.819Z,4.73
2018-03-26T11:04:05.471Z,4.10
2018-03-26T11:06:33.074Z,5.70
2018-03-26T11:09:00.678Z,6.20
2018-03-26T11:11:28.342Z,6.97
2018-03-26T11:13:55.942Z,6.70
2018-03-26T11:16:23.605Z,6.67
2018-03-26T11:18:51.186Z,5.87
2018-03-26T11:21:18.835Z,6.00
2018-03-26T11:23:46.434Z,4.67
2018-03-26T11:26:14.206Z,4.50
2018-03-26T11:28:41.810Z,3.83
2018-03-26T11:31:09.531Z,4.00
2018-03-26T11:33:37.149Z,3.83
2018-03-26T11:36:04.813Z,3.03
2018-03-26T11:38:32.441Z,2.67
2018-03-26T11:41:00.074Z,3.50
2018-03-26T11:43:27.672Z,3.20
2018-03-26T11:45:55.339Z,2.90
2018-03-26T11:48:22.958Z,2.87
2018-03-26T11:50:50.756Z,2.40
2018-03-26T11:53:18.362Z,3.20
2018-03-26T11:55:46.007Z,13.33
2018-03-26T11:58:13.695Z,2.70
2018-03-26T12:00:41.358Z,3.20
2018-03-26T12:03:09.002Z,4.07
2018-03-26T12:05:36.577Z,3.00
2018-03-26T12:08:04.185Z,2.83
2018-03-26T12:10:31.855Z,3.10
2018-03-26T12:12:59.467Z,2.90
2018-03-26T12:15:27.431Z,2.80
2018-03-26T12:17:55.028Z,2.83
2018-03-26T12:20:34.292Z,3.13
2018-03-26T12:23:13.635Z,3.10
2018-03-26T12:25:41.426Z,2.40
2018-03-26T12:28:20.825Z,5.00
2018-03-26T12:30:48.509Z,2.93
2018-03-26T12:33:16.156Z,2.83
2018-03-26T12:35:53.459Z,2.20
2018-03-26T12:38:21.059Z,2.10
2018-03-26T12:40:52.260Z,1.60
2018-03-26T12:43:20.000Z,2.00
2018-03-26T12:45:59.334Z,2.10
2018-03-26T12:48:26.963Z,1.87
2018-03-26T12:51:06.363Z,2.13
2018-03-26T12:53:33.971Z,2.83
2018-03-26T12:56:01.611Z,2.57
2018-03-26T12:58:41.854Z,2.67
2018-03-26T13:01:21.497Z,2.30
2018-03-26T13:03:49.086Z,2.20
2018-03-26T13:06:16.746Z,2.00
2018-03-26T13:08:44.395Z,1.90
2018-03-26T13:11:11.999Z,2.10
2018-03-26T13:13:39.653Z,2.63
2018-03-26T13:16:07.468Z,2.90
2018-03-26T13:18:35.085Z,2.23
2018-03-26T13:21:02.720Z,2.17
2018-03-26T13:23:30.350Z,2.17
2018-03-26T13:25:57.954Z,2.20
2018-03-26T13:28:25.610Z,2.27
2018-03-26T13:30:53.214Z,2.37
2018-03-26T13:33:20.919Z,2.30
2018-03-26T13:35:48.530Z,2.10
2018-03-26T13:38:16.268Z,2.37
2018-03-26T13:40:43.863Z,2.53
2018-03-26T13:43:11.514Z,2.93
2018-03-26T13:45:39.173Z,2.90
2018-03-26T13:48:06.750Z,2.00
2018-03-26T13:50:34.412Z,2.30
2018-03-26T13:53:02.059Z,2.70
2018-03-26T13:55:29.749Z,2.63
2018-03-26T13:57:57.463Z,3.00
2018-03-26T14:00:25.129Z,2.53
2018-03-26T14:02:52.764Z,2.97
2018-03-26T14:05:20.430Z,3.00
2018-03-26T14:07:48.033Z,2.70
2018-03-26T14:10:27.276Z,3.50
2018-03-26T14:16:09.627Z,2.10
2018-03-26T14:18:37.243Z,2.43
2018-03-26T14:21:04.878Z,2.80
2018-03-26T14:23:32.483Z,2.90
2018-03-26T14:26:00.119Z,3.00
2018-03-26T14:28:27.712Z,2.73
2018-03-26T14:30:55.459Z,2.90
2018-03-26T14:33:23.064Z,2.97
2018-03-26T14:35:50.760Z,2.87
2018-03-26T14:38:18.363Z,4.80
2018-03-26T14:40:46.046Z,2.40
2018-03-26T14:43:13.680Z,3.03
2018-03-26T14:45:41.531Z,2.63
2018-03-26T14:48:09.145Z,2.67
2018-03-26T14:50:36.750Z,2.83
2018-03-26T14:53:04.402Z,3.20
2018-03-26T14:55:32.151Z,2.73
2018-03-26T14:57:59.793Z,2.43
2018-03-26T15:00:27.473Z,1.97
2018-03-26T15:02:55.130Z,2.43
2018-03-26T15:05:22.748Z,1.70
2018-03-26T15:07:50.462Z,1.73
2018-03-26T15:10:18.049Z,2.30
2018-03-26T15:12:45.696Z,2.33
2018-03-26T15:15:13.323Z,2.27
2018-03-26T15:17:40.967Z,2.43
2018-03-26T15:20:08.581Z,3.30
2018-03-26T15:22:36.265Z,2.30
2018-03-26T15:25:03.870Z,2.50
2018-03-26T15:27:31.567Z,2.50
2018-03-26T15:29:59.105Z,2.37
2018-03-26T15:32:26.872Z,2.10
2018-03-26T15:34:54.482Z,2.30
2018-03-26T15:37:22.067Z,2.40
2018-03-26T15:39:50.333Z,2.80
2018-03-26T15:42:17.958Z,2.43
2018-03-26T15:44:45.608Z,2.13
2018-03-26T15:47:13.209Z,2.47
2018-03-26T15:49:40.866Z,2.13
2018-03-26T15:52:08.485Z,2.60
2018-03-26T15:54:36.178Z,2.60
2018-03-26T15:57:03.774Z,2.40
2018-03-26T15:59:31.398Z,2.23
2018-03-26T16:01:58.425Z,2.63
2018-03-26T16:04:26.052Z,3.20
2018-03-26T16:06:53.642Z,2.70
2018-03-26T16:09:21.283Z,2.60
2018-03-26T16:11:48.883Z,2.00
2018-03-26T16:14:16.538Z,2.43
2018-03-26T16:16:45.618Z,2.80
2018-03-26T16:19:13.293Z,2.00
2018-03-26T16:21:41.020Z,2.50
2018-03-26T16:24:08.797Z,5.00
2018-03-26T16:26:36.450Z,2.30
2018-03-26T16:29:04.159Z,3.13
2018-03-26T16:31:31.921Z,2.47
2018-03-26T16:33:59.629Z,2.90
2018-03-26T16:36:27.515Z,2.23
2018-03-26T16:38:55.260Z,3.37
2018-03-26T16:41:34.662Z,3.50
2018-03-26T16:44:02.501Z,2.70
2018-03-26T16:46:30.387Z,3.13
2018-03-26T16:48:58.137Z,2.50
2018-03-26T16:51:25.797Z,4.80
2018-03-26T16:53:53.602Z,3.37
2018-03-26T16:56:21.262Z,2.80
2018-03-26T16:58:48.939Z,3.43
2018-03-26T17:01:16.839Z,2.90
2018-03-26T17:03:44.604Z,2.87
2018-03-26T17:06:12.385Z,3.03
2018-03-26T17:08:40.192Z,3.10
2018-03-26T17:11:08.465Z,4.47
2018-03-26T17:13:36.111Z,3.60
2018-03-26T17:16:03.798Z,3.17
2018-03-26T17:18:31.415Z,3.50
2018-03-26T17:20:59.022Z,3.60
2018-03-26T17:23:26.658Z,3.07
2018-03-26T17:25:54.322Z,3.70
2018-03-26T17:28:21.974Z,3.27
2018-03-26T17:30:49.660Z,4.33
2018-03-26T17:33:17.289Z,3.60
2018-03-26T17:35:44.892Z,4.27
2018-03-26T17:38:12.515Z,4.40
2018-03-26T17:40:40.197Z,3.20
2018-03-26T17:43:07.821Z,4.03
2018-03-26T17:45:35.447Z,8.27
2018-03-26T17:48:03.116Z,4.00
2018-03-26T17:50:30.715Z,4.10
2018-03-26T17:52:58.562Z,4.10
2018-03-26T17:55:26.129Z,4.00
2018-03-26T17:57:53.838Z,4.60
2018-03-26T18:00:21.449Z,4.70
2018-03-26T18:02:49.096Z,4.23
2018-03-26T18:05:16.742Z,4.77
2018-03-26T18:07:44.406Z,4.63
2018-03-26T18:10:12.055Z,5.23
2018-03-26T18:12:39.657Z,4.87
2018-03-26T18:15:07.275Z,5.37
2018-03-26T18:17:35.060Z,7.23
2018-03-26T18:20:02.687Z,6.57
2018-03-26T18:22:30.305Z,5.50
2018-03-26T18:24:58.051Z,4.20
2018-03-26T18:27:25.664Z,8.30
2018-03-26T18:29:53.363Z,19.87
2018-03-26T18:32:20.982Z,97.80
2018-03-26T18:34:48.652Z,23.13
2018-03-26T18:37:16.427Z,13.40
2018-03-26T18:39:44.091Z,38.67
2018-03-26T18:42:11.702Z,16.87
2018-03-26T18:44:39.363Z,10.73
2018-03-26T18:47:06.958Z,8.37
2018-03-26T18:49:34.633Z,15.70
2018-03-26T18:52:02.266Z,15.83
2018-03-26T18:54:30.044Z,15.93
2018-03-26T18:56:57.742Z,15.00
2018-03-26T18:59:25.352Z,6.00
2018-03-26T19:01:53.033Z,27.40
2018-03-26T19:04:20.695Z,10.80
2018-03-26T19:06:48.350Z,19.73
2018-03-26T19:09:15.955Z,8.00
2018-03-26T19:11:43.652Z,9.83
2018-03-26T19:14:11.259Z,6.00
2018-03-26T19:16:38.896Z,5.57
2018-03-26T19:19:06.509Z,4.90
2018-03-26T19:21:34.164Z,4.93
2018-03-26T19:24:01.834Z,5.10
2018-03-26T19:26:29.527Z,6.10
2018-03-26T19:28:57.172Z,6.80
2018-03-26T19:31:24.822Z,4.20
2018-03-26T19:33:52.504Z,6.00
2018-03-26T19:36:20.283Z,5.47
2018-03-26T19:38:47.907Z,6.13
2018-03-26T19:41:16.491Z,5.90
2018-03-26T19:43:44.214Z,7.03
2018-03-26T19:46:13.276Z,6.30
2018-03-26T19:48:41.038Z,6.50
2018-03-26T19:51:10.141Z,7.90
2018-03-26T19:53:37.984Z,10.80
2018-03-26T19:56:05.629Z,6.60
2018-03-26T19:58:33.258Z,6.70
2018-03-26T20:01:00.963Z,4.90
2018-03-26T20:03:28.595Z,5.30
2018-03-26T20:05:56.374Z,5.30
2018-03-26T20:08:28.354Z,4.87
2018-03-26T20:11:00.242Z,4.90
2018-03-26T20:13:29.370Z,5.40
2018-03-26T20:16:00.349Z,5.73
2018-03-26T20:18:28.311Z,6.00
2018-03-26T20:20:57.786Z,5.77
2018-03-26T20:23:25.789Z,5.97
2018-03-26T20:25:55.315Z,5.63
2018-03-26T20:28:22.988Z,6.50
2018-03-26T20:30:50.779Z,5.70
2018-03-26T20:33:18.588Z,5.83
2018-03-26T20:35:46.569Z,5.70
2018-03-26T20:38:15.054Z,5.70
2018-03-26T20:40:42.618Z,5.33
2018-03-26T20:43:10.254Z,4.17
2018-03-26T20:45:37.858Z,4.73
2018-03-26T20:48:05.512Z,5.50
2018-03-26T20:50:33.114Z,6.23
2018-03-26T20:53:00.778Z,5.70
2018-03-26T20:55:28.423Z,6.20
2018-03-26T20:57:56.251Z,5.93
2018-03-26T21:00:23.852Z,10.13
2018-03-26T21:02:51.454Z,6.40
2018-03-26T21:05:19.097Z,9.17
2018-03-26T21:07:46.730Z,7.20
2018-03-26T21:10:14.377Z,7.40
2018-03-26T21:12:42.049Z,6.80
2018-03-26T21:15:09.686Z,6.07
2018-03-26T21:17:37.289Z,7.00
2018-03-26T21:20:04.936Z,6.53
2018-03-26T21:22:32.527Z,8.30
2018-03-26T21:25:00.179Z,7.33
2018-03-26T21:27:27.822Z,7.53
2018-03-26T21:29:55.462Z,7.90
2018-03-26T21:32:23.082Z,9.47
2018-03-26T21:34:50.739Z,9.37
2018-03-26T21:37:18.483Z,8.93
2018-03-26T21:39:46.130Z,7.97
2018-03-26T21:42:13.749Z,8.07
2018-03-26T21:44:41.416Z,9.20
2018-03-26T21:47:09.049Z,9.50
2018-03-26T21:49:36.715Z,8.80
2018-03-26T21:52:04.387Z,8.77
2018-03-26T21:54:32.028Z,9.20
2018-03-26T21:56:59.647Z,11.07
2018-03-26T21:59:27.290Z,9.70
2018-03-26T22:01:55.034Z,10.17
2018-03-26T22:04:22.728Z,8.40
2018-03-26T22:06:50.372Z,9.53
2018-03-26T22:09:17.976Z,8.80
2018-03-26T22:11:45.659Z,10.97
2018-03-26T22:14:13.298Z,9.87
2018-03-26T22:16:40.990Z,11.07
2018-03-26T22:19:08.595Z,10.67
2018-03-26T22:21:36.238Z,9.43
2018-03-26T22:24:03.833Z,11.17
2018-03-26T22:26:31.450Z,10.70
2018-03-26T22:28:59.061Z,11.33
2018-03-26T22:31:26.671Z,12.57
2018-03-26T22:33:54.297Z,12.33
2018-03-26T22:36:21.940Z,13.00
2018-03-26T22:38:49.541Z,12.00
2018-03-26T22:41:17.194Z,11.67
2018-03-26T22:43:44.793Z,11.10
2018-03-26T22:46:12.447Z,10.80
2018-03-26T22:48:40.060Z,10.90
2018-03-26T22:51:07.675Z,9.47
2018-03-26T22:53:35.361Z,11.00
2018-03-26T22:56:03.131Z,11.60
2018-03-26T22:58:30.786Z,11.03
2018-03-26T23:00:58.371Z,12.00
2018-03-26T23:03:26.017Z,11.33
2018-03-26T23:05:53.608Z,13.27
2018-03-26T23:08:21.235Z,12.17
2018-03-26T23:10:48.847Z,12.33
2018-03-26T23:13:16.493Z,12.13
2018-03-26T23:15:44.148Z,13.00
2018-03-26T23:18:11.802Z,12.50
2018-03-26T23:20:39.479Z,12.40
2018-03-26T23:23:07.107Z,13.80
2018-03-26T23:25:34.698Z,12.87
2018-03-26T23:28:02.469Z,12.90
2018-03-26T23:30:30.054Z,12.43
2018-03-26T23:32:57.703Z,14.07
2018-03-26T23:35:25.362Z,13.27
2018-03-26T23:37:52.900Z,14.33
2018-03-26T23:40:20.561Z,14.30
2018-03-26T23:42:48.219Z,13.40
2018-03-26T23:45:15.861Z,16.30
2018-03-26T23:47:43.463Z,14.17
2018-03-26T23:50:11.103Z,14.80
2018-03-26T23:52:38.699Z,15.50
2018-03-26T23:55:06.379Z,15.80
2018-03-26T23:57:34.006Z,15.50
